Disclaimer

Please do not use the information listed here in-flight or in-navigation, as they are not provided to us by the airports but are provided by volunteers, so they might be outdated.

Search


Regions


Airport information page

Radio informations:
RDO - 118.15 MHz

Airport informations:
Latitude: 28° 25' 50.28" N
Longitude: 129° 42' 45.15" E
Elevation: 27 feet - 8 meters
Operating hours: Remarks
Operating agency: Civil government, landing fees and diplomatic clearance may be required
Timezone: UTC+9
Fuel: Jet A, without icing inhibitor.

JP-4, Wide cut turbine fuel MIL Spec T-5624

100/130 octane gasoline, leaded, MIL-L-5572F (GREEN)

Runway information:
03/21 - 6560 x 150 feet< - >1999 x 46 meters

Recent METARs:
RJKA 202300Z 11011KT 9999 FEW035 SCT040 21/13 Q1020
RJKA 210000Z 10010KT 9999 FEW035 BKN110 BKN150 21/12 Q1020
RJKA 210000Z 10010KT 9999 FEW035 BKN110 BKN150 21/12 Q1020

Airport on the map: